Flyer — WDJ5814 — position and weather

sailwx.info

Track history (hours):
 
Tides and Currents Weather Stations Pressure Air Temp Water Temp Dewpoint Dewpoint Depression Visibility Wind Speed Wind Dir Waves Ship Positions

Flyer

Owner: HNY Ferry Fleet LLC, New York, NY. More information available from US FCC via Universal Licensing System and Coast Guard Vessel Documentation Center.

Last reported at 2017-Dec-16 03:13 UTC. Time now 2017-Dec-17 06:23 UTC.
Position N 40°42' W 073°58'.

Length 26 m; draft 2 m.

Type: Passenger vessel. MMSI: 367791550.

Date/timePositionNaut miles runAvg speedWind from/ knotsBaromVisibWave heightAir tempDewpointWater temp
2017-Dec-16 03:13N 40°42' W 073°58'2 7.4
2017-Dec-16 03:01N 40°42' W 074°00'816.2
2017-Dec-16 02:30N 40°34' W 073°57'2 4.6
2017-Dec-16 01:59N 40°34' W 073°54'715.0
2017-Dec-16 01:30N 40°39' W 074°02'1 1.9
2017-Dec-16 01:01N 40°40' W 074°01'612.6
2017-Dec-16 00:30N 40°34' W 073°58'2 4.6
2017-Dec-16 00:00N 40°34' W 073°55'714.3
2017-Dec-15 23:31N 40°39' W 074°02'1 2.3
2017-Dec-15 23:01N 40°40' W 074°01'8 7.8
2017-Dec-15 22:01N 40°34' W 073°54'026.2
2017-Dec-15 22:00N 40°34' W 073°55'714.0
2017-Dec-15 21:30N 40°39' W 074°02'1 2.6
2017-Dec-15 21:01N 40°40' W 074°01'713.7
2017-Dec-15 20:30N 40°34' W 073°57'4 7.2
2017-Dec-15 19:59N 40°35' W 073°53'816.8
2017-Dec-15 19:30N 40°39' W 074°02'1 2.6
2017-Dec-15 19:01N 40°40' W 074°01'813.4
2017-Dec-15 18:25N 40°34' W 073°54'2 4.0
2017-Dec-15 18:00N 40°35' W 073°52'816.8
2017-Dec-15 17:30N 40°39' W 074°02'1 1.6
2017-Dec-15 17:01N 40°40' W 074°01'713.1
2017-Dec-15 16:29N 40°34' W 073°56'2 5.0
2017-Dec-15 16:00N 40°34' W 073°53'815.4
2017-Dec-15 15:30N 40°39' W 074°02'0 0.9
2017-Dec-15 15:01N 40°39' W 074°02'713.5
2017-Dec-15 14:29N 40°34' W 073°56'2 3.2
2017-Dec-15 14:00N 40°34' W 073°54'715.0
2017-Dec-15 13:30N 40°39' W 074°02'1 2.0
2017-Dec-15 13:01N 40°40' W 074°01'910.2
2017-Dec-15 12:06N 40°35' W 073°51'223.3
2017-Dec-15 12:00N 40°34' W 073°54'815.3
2017-Dec-15 11:30N 40°39' W 074°02'1 1.1
2017-Dec-15 11:01N 40°39' W 074°02'714.1
2017-Dec-15 10:30N 40°34' W 073°55'2 3.7
2017-Dec-15 10:00N 40°34' W 073°53'816.6
2017-Dec-15 09:30N 40°39' W 074°02'4 7.0
2017-Dec-15 09:00N 40°42' W 073°58'8 1.2
2017-Dec-15 02:30N 40°34' W 074°00'6 4.1
2017-Dec-15 01:01N 40°40' W 074°01'713.4
2017-Dec-15 00:30N 40°34' W 073°57'1 0.1
2017-Dec-14 18:29N 40°34' W 073°56'1 2.1
2017-Dec-14 18:00N 40°34' W 073°55'714.6
2017-Dec-14 17:31N 40°39' W 074°02'1 1.7
2017-Dec-14 17:01N 40°40' W 074°01'713.3
2017-Dec-14 16:29N 40°34' W 073°56'2 4.3
2017-Dec-14 16:00N 40°34' W 073°54'8 7.9
2017-Dec-14 15:01N 40°39' W 074°02'713.0
2017-Dec-14 14:30N 40°34' W 073°57'2 3.7
2017-Dec-14 13:59N 40°34' W 073°54'714.7
2017-Dec-14 13:30N 40°39' W 074°02'1 1.1
2017-Dec-14 13:01N 40°39' W 074°01'713.0
2017-Dec-14 12:30N 40°34' W 073°57'2 3.8
2017-Dec-14 12:00N 40°34' W 073°54'714.8
2017-Dec-14 11:30N 40°39' W 074°02'0 0.5
2017-Dec-14 11:01N 40°39' W 074°02'714.0
2017-Dec-14 10:30N 40°34' W 073°55'0 0.9
2017-Dec-14 10:00N 40°34' W 073°56'816.5
2017-Dec-14 09:31N 40°41' W 074°01'2 5.0
2017-Dec-14 09:00N 40°42' W 073°58'0 0.0
2017-Dec-14 03:48N 40°42' W 073°58'414.9
2017-Dec-14 03:30N 40°46' W 073°56'2 4.7
2017-Dec-14 03:00N 40°45' W 073°58'0 0.1
2017-Dec-14 02:30N 40°45' W 073°58'2 4.4
2017-Dec-14 02:00N 40°46' W 073°56'2 3.6
2017-Dec-14 01:30N 40°45' W 073°57'3 6.5
2017-Dec-14 01:01N 40°42' W 074°00'4 8.6
2017-Dec-14 00:30N 40°46' W 073°57'1 1.1
2017-Dec-14 00:00N 40°45' W 073°57'3 6.7
2017-Dec-13 23:31N 40°42' W 073°59'3 5.4
2017-Dec-13 23:00N 40°45' W 073°57'2 3.2
2017-Dec-13 22:29N 40°46' W 073°56'2 4.9
2017-Dec-13 22:00N 40°45' W 073°58'0 0.0
2017-Dec-13 21:30N 40°45' W 073°58'2 4.4
2017-Dec-13 20:58N 40°46' W 073°56'2 3.7
2017-Dec-13 20:30N 40°45' W 073°57'3 7.0
2017-Dec-13 20:00N 40°42' W 074°00'2 3.1
2017-Dec-13 19:30N 40°42' W 073°58'1 1.7
2017-Dec-13 19:00N 40°42' W 073°59'1 1.7
2017-Dec-13 18:29N 40°42' W 073°58'0 0.7
2017-Dec-13 18:01N 40°42' W 073°59'3 6.3
2017-Dec-13 17:30N 40°45' W 073°57'1 2.7
2017-Dec-13 17:01N 40°44' W 073°58'713.3
2017-Dec-13 16:31N 40°38' W 074°02'0 0.9
2017-Dec-13 16:01N 40°39' W 074°02'4 8.5
2017-Dec-13 15:30N 40°42' W 073°58'5 8.9
2017-Dec-13 15:00N 40°46' W 073°56'2 4.8
2017-Dec-13 14:30N 40°45' W 073°58'0 0.2
2017-Dec-13 14:00N 40°45' W 073°58'2 4.3
2017-Dec-13 13:30N 40°46' W 073°56'2 3.6
2017-Dec-13 13:01N 40°45' W 073°57'3 6.4
2017-Dec-13 12:31N 40°42' W 073°60'4 7.6
2017-Dec-13 12:00N 40°45' W 073°57'3 6.9
2017-Dec-13 11:30N 40°42' W 073°58'0 0.0
2017-Dec-13 03:05N 40°42' W 073°58'0 0.0
2017-Dec-13 03:00N 40°42' W 073°58'715.0
2017-Dec-13 02:30N 40°35' W 074°01'714.7
2017-Dec-13 02:00N 40°35' W 073°52'917.1
2017-Dec-13 01:30N 40°39' W 074°02'1 2.8
2017-Dec-13 01:01N 40°40' W 074°01'713.7
2017-Dec-13 00:30N 40°34' W 073°58'3 6.4
2017-Dec-13 00:00N 40°34' W 073°53'815.7
2017-Dec-12 23:31N 40°39' W 074°02'1 2.3
2017-Dec-12 23:01N 40°40' W 074°01'713.6
2017-Dec-12 22:30N 40°34' W 073°57'3 6.0
2017-Dec-12 22:00N 40°34' W 073°53'815.7
2017-Dec-12 21:30N 40°39' W 074°02'1 2.8
2017-Dec-12 21:01N 40°40' W 074°01'713.8
2017-Dec-12 20:30N 40°34' W 073°57'3 6.4
2017-Dec-12 20:00N 40°34' W 073°53'816.1
2017-Dec-12 19:30N 40°39' W 074°02'1 1.9
2017-Dec-12 19:01N 40°40' W 074°01'714.4
2017-Dec-12 18:30N 40°34' W 073°55'1 2.6
2017-Dec-12 18:00N 40°34' W 073°54'715.1
2017-Dec-12 17:31N 40°39' W 074°02'0 0.1
2017-Dec-12 17:00N 40°39' W 074°02'713.4
2017-Dec-12 16:30N 40°34' W 073°56'0 0.3
2017-Dec-12 16:00N 40°34' W 073°55'713.9
2017-Dec-12 15:31N 40°39' W 074°02'0 0.2
2017-Dec-12 15:01N 40°39' W 074°02'612.6
2017-Dec-12 14:30N 40°34' W 073°57'2 3.9
2017-Dec-12 14:00N 40°34' W 073°54'714.8
2017-Dec-12 13:31N 40°39' W 074°02'0 0.2
2017-Dec-12 13:00N 40°39' W 074°02'713.4
2017-Dec-12 12:30N 40°34' W 073°56'1 2.8
2017-Dec-12 12:00N 40°34' W 073°54'715.1
2017-Dec-12 11:31N 40°39' W 074°02'1 2.3
2017-Dec-12 11:01N 40°40' W 074°01'713.7
2017-Dec-12 10:30N 40°34' W 073°57'4 8.6
2017-Dec-12 10:00N 40°35' W 073°52'917.7
2017-Dec-12 09:31N 40°38' W 074°03'510.8
2017-Dec-12 09:00N 40°42' W 073°58'0 0.0
2017-Dec-12 03:43N 40°42' W 073°58'1 7.2
2017-Dec-12 03:30N 40°42' W 074°00'4 8.0
2017-Dec-12 03:00N 40°45' W 073°57'0 0.2
2017-Dec-12 02:30N 40°45' W 073°57'3 6.8
2017-Dec-12 02:00N 40°42' W 073°59'3 5.4
2017-Dec-12 01:30N 40°45' W 073°57'2 3.3
2017-Dec-12 01:00N 40°46' W 073°56'2 4.7
2017-Dec-12 00:30N 40°45' W 073°58'0 0.2
2017-Dec-12 00:00N 40°45' W 073°58'2 4.3
2017-Dec-11 23:28N 40°46' W 073°56'2 3.6
2017-Dec-11 23:00N 40°45' W 073°57'3 6.8
2017-Dec-11 22:30N 40°42' W 074°00'4 8.1
2017-Dec-11 22:00N 40°46' W 073°57'0 0.1
2017-Dec-11 21:30N 40°45' W 073°57'4 7.9
2017-Dec-11 21:00N 40°42' W 074°00'3 6.6
2017-Dec-11 20:30N 40°45' W 073°57'2 3.4
2017-Dec-11 20:00N 40°46' W 073°56'3 5.1
2017-Dec-11 19:30N 40°44' W 073°58'0 0.7
2017-Dec-11 19:00N 40°45' W 073°58'2 4.3
2017-Dec-11 18:29N 40°46' W 073°56'2 3.6
2017-Dec-11 18:00N 40°45' W 073°57'3 5.7
2017-Dec-11 17:31N 40°42' W 073°59'4 7.6
2017-Dec-11 17:00N 40°46' W 073°57'0 1.0
2017-Dec-11 16:30N 40°45' W 073°57'4 8.1
2017-Dec-11 16:01N 40°42' W 074°00'3 7.0
2017-Dec-11 15:30N 40°45' W 073°57'2 3.1
2017-Dec-11 14:58N 40°46' W 073°56'1 1.3
2017-Dec-11 14:30N 40°46' W 073°57'4 7.5
2017-Dec-11 14:01N 40°43' W 073°59'2 4.5
2017-Dec-11 13:30N 40°45' W 073°58'2 4.2
2017-Dec-11 13:00N 40°46' W 073°56'2 3.7
2017-Dec-11 12:30N 40°45' W 073°58'2 4.9
2017-Dec-11 12:01N 40°43' W 073°59'4 8.2
2017-Dec-11 11:30N 40°46' W 073°56'4 9.0
2017-Dec-11 11:00N 40°42' W 073°58'0 0.0
2017-Dec-11 02:41N 40°42' W 073°58'1 5.0
2017-Dec-11 02:31N 40°42' W 073°59'713.6
2017-Dec-11 02:00N 40°36' W 074°02'917.7
2017-Dec-11 01:30N 40°35' W 073°50'917.5
2017-Dec-11 01:00N 40°35' W 074°01'714.9
2017-Dec-11 00:30N 40°42' W 074°00'612.8
2017-Dec-11 00:00N 40°36' W 074°02'916.1
2017-Dec-10 23:26N 40°35' W 073°50'920.2
2017-Dec-10 23:00N 40°36' W 074°02'713.7
2017-Dec-10 22:31N 40°42' W 074°00'713.8
2017-Dec-10 22:00N 40°35' W 074°02'914.9
2017-Dec-10 21:24N 40°35' W 073°50'821.7
2017-Dec-10 21:01N 40°34' W 074°01'815.8
2017-Dec-10 20:30N 40°42' W 074°00'612.0
2017-Dec-10 20:00N 40°36' W 074°02'1016.0
2017-Dec-10 19:25N 40°35' W 073°50'921.4
2017-Dec-10 19:01N 40°35' W 074°01'815.0
2017-Dec-10 18:30N 40°42' W 074°00'2 0.1
2017-Dec-10 02:43N 40°42' W 073°58'0 0.7
2017-Dec-10 02:31N 40°42' W 073°58'611.1
2017-Dec-10 02:01N 40°38' W 074°03'1019.7
2017-Dec-10 01:30N 40°35' W 073°50'815.7
2017-Dec-10 01:00N 40°34' W 074°00'816.4
2017-Dec-10 00:30N 40°42' W 074°00'510.5
2017-Dec-10 00:01N 40°37' W 074°03'1019.7
2017-Dec-09 23:30N 40°35' W 073°50'815.5
2017-Dec-09 23:01N 40°34' W 074°00'816.3
2017-Dec-09 22:31N 40°42' W 074°00'510.8
2017-Dec-09 22:01N 40°37' W 074°03'1019.2
2017-Dec-09 21:30N 40°35' W 073°50'816.1
2017-Dec-09 21:00N 40°34' W 074°00'816.6
2017-Dec-09 20:31N 40°42' W 074°00'1 2.1
2017-Dec-09 20:01N 40°43' W 074°01'1324.8
2017-Dec-09 19:30N 40°55' W 073°55'4 1.4
2017-Dec-09 16:13N 40°59' W 073°54'625.8
2017-Dec-09 16:00N 40°54' W 073°55'1225.0
2017-Dec-09 15:31N 40°42' W 074°01'2 4.5
2017-Dec-09 15:01N 40°42' W 073°58'0 0.0
2017-Dec-09 04:02N 40°42' W 073°58'0 0.0
2017-Dec-09 04:00N 40°42' W 073°58'1 3.0
2017-Dec-09 03:31N 40°42' W 074°00'4 8.2
2017-Dec-09 03:00N 40°45' W 073°57'0 0.1
2017-Dec-09 02:30N 40°45' W 073°57'4 7.4
2017-Dec-09 02:01N 40°42' W 073°60'3 6.0
2017-Dec-09 01:30N 40°45' W 073°57'2 3.4
2017-Dec-09 01:00N 40°46' W 073°56'2 4.8
2017-Dec-09 00:30N 40°44' W 073°58'0 0.3
2017-Dec-09 00:00N 40°45' W 073°58'2 4.5
2017-Dec-08 23:30N 40°46' W 073°56'2 3.5
2017-Dec-08 23:01N 40°45' W 073°57'3 6.8
2017-Dec-08 22:30N 40°42' W 074°00'4 7.9
2017-Dec-08 22:00N 40°45' W 073°57'0 0.1
2017-Dec-08 21:30N 40°45' W 073°57'4 8.0
2017-Dec-08 21:00N 40°42' W 074°00'3 6.7
2017-Dec-08 20:30N 40°45' W 073°57'2 3.3
2017-Dec-08 20:00N 40°46' W 073°56'2 4.8
2017-Dec-08 19:30N 40°45' W 073°58'0 0.3
2017-Dec-08 19:00N 40°45' W 073°58'2 4.4
2017-Dec-08 18:29N 40°46' W 073°56'2 3.6
2017-Dec-08 18:00N 40°45' W 073°57'3 6.7
2017-Dec-08 17:31N 40°42' W 074°00'5 8.8
2017-Dec-08 17:00N 40°46' W 073°57'0 0.9
2017-Dec-08 16:31N 40°45' W 073°57'4 7.6
2017-Dec-08 16:01N 40°42' W 073°60'3 6.2
2017-Dec-08 15:30N 40°45' W 073°57'2 3.4
2017-Dec-08 15:00N 40°46' W 073°56'1 1.3
2017-Dec-08 14:30N 40°46' W 073°57'2 4.4
2017-Dec-08 14:01N 40°44' W 073°58'1 1.8
2017-Dec-08 13:30N 40°45' W 073°58'2 4.3
2017-Dec-08 13:00N 40°46' W 073°56'2 3.5
2017-Dec-08 12:30N 40°45' W 073°57'2 3.9
2017-Dec-08 12:01N 40°43' W 073°58'4 7.2
2017-Dec-08 11:30N 40°46' W 073°56'5 9.2
2017-Dec-08 11:00N 40°42' W 073°58'0 0.0
2017-Dec-08 03:12N 40°42' W 073°58'2 9.7
2017-Dec-08 03:01N 40°42' W 074°01'916.8
2017-Dec-08 02:30N 40°34' W 073°55'1 1.5
2017-Dec-08 02:00N 40°34' W 073°54'714.5
2017-Dec-08 01:30N 40°39' W 074°02'0 0.0
2017-Dec-08 01:01N 40°39' W 074°02'713.6
2017-Dec-08 00:30N 40°34' W 073°55'0 0.9
2017-Dec-08 00:00N 40°34' W 073°55'714.3
2017-Dec-07 23:31N 40°39' W 074°02'0 0.0
2017-Dec-07 23:00N 40°39' W 074°02'713.8
2017-Dec-07 22:30N 40°34' W 073°55'1 1.6
2017-Dec-07 22:00N 40°34' W 073°56'714.3
2017-Dec-07 21:31N 40°39' W 074°02'0 0.8
2017-Dec-07 21:01N 40°39' W 074°02'815.3
2017-Dec-07 20:30N 40°34' W 073°53'5 9.2
2017-Dec-07 20:00N 40°34' W 073°59'816.8
2017-Dec-07 19:30N 40°42' W 074°00'0 0.1
2017-Dec-07 19:01N 40°42' W 074°00'1 3.0
2017-Dec-07 18:30N 40°43' W 073°58'4 8.0
2017-Dec-07 18:00N 40°46' W 073°56'4 7.7
2017-Dec-07 17:30N 40°43' W 073°58'4 8.1
2017-Dec-07 17:01N 40°40' W 074°01'1 2.8
2017-Dec-07 16:30N 40°41' W 074°01'0 0.1
2017-Dec-07 16:00N 40°41' W 074°01'3 5.2
2017-Dec-07 15:30N 40°43' W 073°58'3 6.6
2017-Dec-07 15:00N 40°46' W 073°57'2 3.0
2017-Dec-07 14:30N 40°45' W 073°58'0 0.1
2017-Dec-07 13:59N 40°45' W 073°58'2 4.6
2017-Dec-07 13:29N 40°46' W 073°56'2 3.6
2017-Dec-07 13:01N 40°45' W 073°57'3 6.7
2017-Dec-07 12:31N 40°42' W 074°00'4 8.3
2017-Dec-07 12:00N 40°46' W 073°57'4 7.2
2017-Dec-07 11:30N 40°42' W 073°58'0 0.0
2017-Dec-07 02:27N 40°42' W 073°58'4 9.3
2017-Dec-07 02:00N 40°39' W 074°02'714.2
2017-Dec-07 01:30N 40°34' W 073°55'1 1.1
2017-Dec-07 01:00N 40°34' W 073°55'714.2
2017-Dec-07 00:31N 40°39' W 074°02'0 0.2
2017-Dec-07 00:00N 40°39' W 074°02'714.1
2017-Dec-06 23:30N 40°34' W 073°55'2 3.1
2017-Dec-06 23:00N 40°34' W 073°57'613.2
2017-Dec-06 22:31N 40°39' W 074°02'0 0.1
2017-Dec-06 22:00N 40°39' W 074°02'713.3
2017-Dec-06 21:30N 40°34' W 073°56'2 4.4
2017-Dec-06 21:00N 40°34' W 073°53'  
Track history (hours):
 
Tides and Currents Weather Stations Pressure Air Temp Water Temp Dewpoint Dewpoint Depression Visibility Wind Speed Wind Dir Waves Ship Positions

Flyer

Owner: HNY Ferry Fleet LLC, New York, NY. More information available from US FCC via Universal Licensing System and Coast Guard Vessel Documentation Center.

Last reported at 2017-Dec-16 03:13 UTC. Time now 2017-Dec-17 06:23 UTC.
Position N 40°42' W 073°58'.

Length 26 m; draft 2 m.

Type: Passenger vessel. MMSI: 367791550.

Date/timePositionNaut miles runAvg speedWind from/ knotsBaromVisibWave heightAir tempDewpointWater temp
2017-Dec-16 03:13N 40°42' W 073°58'2 7.4
2017-Dec-16 03:01N 40°42' W 074°00'816.2
2017-Dec-16 02:30N 40°34' W 073°57'2 4.6
2017-Dec-16 01:59N 40°34' W 073°54'715.0
2017-Dec-16 01:30N 40°39' W 074°02'1 1.9
2017-Dec-16 01:01N 40°40' W 074°01'612.6
2017-Dec-16 00:30N 40°34' W 073°58'2 4.6
2017-Dec-16 00:00N 40°34' W 073°55'714.3
2017-Dec-15 23:31N 40°39' W 074°02'1 2.3
2017-Dec-15 23:01N 40°40' W 074°01'8 7.8
2017-Dec-15 22:01N 40°34' W 073°54'026.2
2017-Dec-15 22:00N 40°34' W 073°55'714.0
2017-Dec-15 21:30N 40°39' W 074°02'1 2.6
2017-Dec-15 21:01N 40°40' W 074°01'713.7
2017-Dec-15 20:30N 40°34' W 073°57'4 7.2
2017-Dec-15 19:59N 40°35' W 073°53'816.8
2017-Dec-15 19:30N 40°39' W 074°02'1 2.6
2017-Dec-15 19:01N 40°40' W 074°01'813.4
2017-Dec-15 18:25N 40°34' W 073°54'2 4.0
2017-Dec-15 18:00N 40°35' W 073°52'816.8
2017-Dec-15 17:30N 40°39' W 074°02'1 1.6
2017-Dec-15 17:01N 40°40' W 074°01'713.1
2017-Dec-15 16:29N 40°34' W 073°56'2 5.0
2017-Dec-15 16:00N 40°34' W 073°53'815.4
2017-Dec-15 15:30N 40°39' W 074°02'0 0.9
2017-Dec-15 15:01N 40°39' W 074°02'713.5
2017-Dec-15 14:29N 40°34' W 073°56'2 3.2
2017-Dec-15 14:00N 40°34' W 073°54'715.0
2017-Dec-15 13:30N 40°39' W 074°02'1 2.0
2017-Dec-15 13:01N 40°40' W 074°01'910.2
2017-Dec-15 12:06N 40°35' W 073°51'223.3
2017-Dec-15 12:00N 40°34' W 073°54'815.3
2017-Dec-15 11:30N 40°39' W 074°02'1 1.1
2017-Dec-15 11:01N 40°39' W 074°02'714.1
2017-Dec-15 10:30N 40°34' W 073°55'2 3.7
2017-Dec-15 10:00N 40°34' W 073°53'816.6
2017-Dec-15 09:30N 40°39' W 074°02'4 7.0
2017-Dec-15 09:00N 40°42' W 073°58'8 1.2
2017-Dec-15 02:30N 40°34' W 074°00'6 4.1
2017-Dec-15 01:01N 40°40' W 074°01'713.4
2017-Dec-15 00:30N 40°34' W 073°57'1 0.1
2017-Dec-14 18:29N 40°34' W 073°56'1 2.1
2017-Dec-14 18:00N 40°34' W 073°55'714.6
2017-Dec-14 17:31N 40°39' W 074°02'1 1.7
2017-Dec-14 17:01N 40°40' W 074°01'713.3
2017-Dec-14 16:29N 40°34' W 073°56'2 4.3
2017-Dec-14 16:00N 40°34' W 073°54'8 7.9
2017-Dec-14 15:01N 40°39' W 074°02'713.0
2017-Dec-14 14:30N 40°34' W 073°57'2 3.7
2017-Dec-14 13:59N 40°34' W 073°54'714.7
2017-Dec-14 13:30N 40°39' W 074°02'1 1.1
2017-Dec-14 13:01N 40°39' W 074°01'713.0
2017-Dec-14 12:30N 40°34' W 073°57'2 3.8
2017-Dec-14 12:00N 40°34' W 073°54'714.8
2017-Dec-14 11:30N 40°39' W 074°02'0 0.5
2017-Dec-14 11:01N 40°39' W 074°02'714.0
2017-Dec-14 10:30N 40°34' W 073°55'0 0.9
2017-Dec-14 10:00N 40°34' W 073°56'816.5
2017-Dec-14 09:31N 40°41' W 074°01'2 5.0
2017-Dec-14 09:00N 40°42' W 073°58'0 0.0
2017-Dec-14 03:48N 40°42' W 073°58'414.9
2017-Dec-14 03:30N 40°46' W 073°56'2 4.7
2017-Dec-14 03:00N 40°45' W 073°58'0 0.1
2017-Dec-14 02:30N 40°45' W 073°58'2 4.4
2017-Dec-14 02:00N 40°46' W 073°56'2 3.6
2017-Dec-14 01:30N 40°45' W 073°57'3 6.5
2017-Dec-14 01:01N 40°42' W 074°00'4 8.6
2017-Dec-14 00:30N 40°46' W 073°57'1 1.1
2017-Dec-14 00:00N 40°45' W 073°57'3 6.7
2017-Dec-13 23:31N 40°42' W 073°59'3 5.4
2017-Dec-13 23:00N 40°45' W 073°57'2 3.2
2017-Dec-13 22:29N 40°46' W 073°56'2 4.9
2017-Dec-13 22:00N 40°45' W 073°58'0 0.0
2017-Dec-13 21:30N 40°45' W 073°58'2 4.4
2017-Dec-13 20:58N 40°46' W 073°56'2 3.7
2017-Dec-13 20:30N 40°45' W 073°57'3 7.0
2017-Dec-13 20:00N 40°42' W 074°00'2 3.1
2017-Dec-13 19:30N 40°42' W 073°58'1 1.7
2017-Dec-13 19:00N 40°42' W 073°59'1 1.7
2017-Dec-13 18:29N 40°42' W 073°58'0 0.7
2017-Dec-13 18:01N 40°42' W 073°59'3 6.3
2017-Dec-13 17:30N 40°45' W 073°57'1 2.7
2017-Dec-13 17:01N 40°44' W 073°58'713.3
2017-Dec-13 16:31N 40°38' W 074°02'0 0.9
2017-Dec-13 16:01N 40°39' W 074°02'4 8.5
2017-Dec-13 15:30N 40°42' W 073°58'5 8.9
2017-Dec-13 15:00N 40°46' W 073°56'2 4.8
2017-Dec-13 14:30N 40°45' W 073°58'0 0.2
2017-Dec-13 14:00N 40°45' W 073°58'2 4.3
2017-Dec-13 13:30N 40°46' W 073°56'2 3.6
2017-Dec-13 13:01N 40°45' W 073°57'3 6.4
2017-Dec-13 12:31N 40°42' W 073°60'4 7.6
2017-Dec-13 12:00N 40°45' W 073°57'3 6.9
2017-Dec-13 11:30N 40°42' W 073°58'0 0.0
2017-Dec-13 03:05N 40°42' W 073°58'0 0.0
2017-Dec-13 03:00N 40°42' W 073°58'715.0
2017-Dec-13 02:30N 40°35' W 074°01'714.7
2017-Dec-13 02:00N 40°35' W 073°52'917.1
2017-Dec-13 01:30N 40°39' W 074°02'1 2.8
2017-Dec-13 01:01N 40°40' W 074°01'713.7
2017-Dec-13 00:30N 40°34' W 073°58'3 6.4
2017-Dec-13 00:00N 40°34' W 073°53'815.7
2017-Dec-12 23:31N 40°39' W 074°02'1 2.3
2017-Dec-12 23:01N 40°40' W 074°01'713.6
2017-Dec-12 22:30N 40°34' W 073°57'3 6.0
2017-Dec-12 22:00N 40°34' W 073°53'815.7
2017-Dec-12 21:30N 40°39' W 074°02'1 2.8
2017-Dec-12 21:01N 40°40' W 074°01'713.8
2017-Dec-12 20:30N 40°34' W 073°57'3 6.4
2017-Dec-12 20:00N 40°34' W 073°53'816.1
2017-Dec-12 19:30N 40°39' W 074°02'1 1.9
2017-Dec-12 19:01N 40°40' W 074°01'714.4
2017-Dec-12 18:30N 40°34' W 073°55'1 2.6
2017-Dec-12 18:00N 40°34' W 073°54'715.1
2017-Dec-12 17:31N 40°39' W 074°02'0 0.1
2017-Dec-12 17:00N 40°39' W 074°02'713.4
2017-Dec-12 16:30N 40°34' W 073°56'0 0.3
2017-Dec-12 16:00N 40°34' W 073°55'713.9
2017-Dec-12 15:31N 40°39' W 074°02'0 0.2
2017-Dec-12 15:01N 40°39' W 074°02'612.6
2017-Dec-12 14:30N 40°34' W 073°57'2 3.9
2017-Dec-12 14:00N 40°34' W 073°54'714.8
2017-Dec-12 13:31N 40°39' W 074°02'0 0.2
2017-Dec-12 13:00N 40°39' W 074°02'713.4
2017-Dec-12 12:30N 40°34' W 073°56'1 2.8
2017-Dec-12 12:00N 40°34' W 073°54'715.1
2017-Dec-12 11:31N 40°39' W 074°02'1 2.3
2017-Dec-12 11:01N 40°40' W 074°01'713.7
2017-Dec-12 10:30N 40°34' W 073°57'4 8.6
2017-Dec-12 10:00N 40°35' W 073°52'917.7
2017-Dec-12 09:31N 40°38' W 074°03'510.8
2017-Dec-12 09:00N 40°42' W 073°58'0 0.0
2017-Dec-12 03:43N 40°42' W 073°58'1 7.2
2017-Dec-12 03:30N 40°42' W 074°00'4 8.0
2017-Dec-12 03:00N 40°45' W 073°57'0 0.2
2017-Dec-12 02:30N 40°45' W 073°57'3 6.8
2017-Dec-12 02:00N 40°42' W 073°59'3 5.4
2017-Dec-12 01:30N 40°45' W 073°57'2 3.3
2017-Dec-12 01:00N 40°46' W 073°56'2 4.7
2017-Dec-12 00:30N 40°45' W 073°58'0 0.2
2017-Dec-12 00:00N 40°45' W 073°58'2 4.3
2017-Dec-11 23:28N 40°46' W 073°56'2 3.6
2017-Dec-11 23:00N 40°45' W 073°57'3 6.8
2017-Dec-11 22:30N 40°42' W 074°00'4 8.1
2017-Dec-11 22:00N 40°46' W 073°57'0 0.1
2017-Dec-11 21:30N 40°45' W 073°57'4 7.9
2017-Dec-11 21:00N 40°42' W 074°00'3 6.6
2017-Dec-11 20:30N 40°45' W 073°57'2 3.4
2017-Dec-11 20:00N 40°46' W 073°56'3 5.1
2017-Dec-11 19:30N 40°44' W 073°58'0 0.7
2017-Dec-11 19:00N 40°45' W 073°58'2 4.3
2017-Dec-11 18:29N 40°46' W 073°56'2 3.6
2017-Dec-11 18:00N 40°45' W 073°57'3 5.7
2017-Dec-11 17:31N 40°42' W 073°59'4 7.6
2017-Dec-11 17:00N 40°46' W 073°57'0 1.0
2017-Dec-11 16:30N 40°45' W 073°57'4 8.1
2017-Dec-11 16:01N 40°42' W 074°00'3 7.0
2017-Dec-11 15:30N 40°45' W 073°57'2 3.1
2017-Dec-11 14:58N 40°46' W 073°56'1 1.3
2017-Dec-11 14:30N 40°46' W 073°57'4 7.5
2017-Dec-11 14:01N 40°43' W 073°59'2 4.5
2017-Dec-11 13:30N 40°45' W 073°58'2 4.2
2017-Dec-11 13:00N 40°46' W 073°56'2 3.7
2017-Dec-11 12:30N 40°45' W 073°58'2 4.9
2017-Dec-11 12:01N 40°43' W 073°59'4 8.2
2017-Dec-11 11:30N 40°46' W 073°56'4 9.0
2017-Dec-11 11:00N 40°42' W 073°58'0 0.0
2017-Dec-11 02:41N 40°42' W 073°58'1 5.0
2017-Dec-11 02:31N 40°42' W 073°59'713.6
2017-Dec-11 02:00N 40°36' W 074°02'917.7
2017-Dec-11 01:30N 40°35' W 073°50'917.5
2017-Dec-11 01:00N 40°35' W 074°01'714.9
2017-Dec-11 00:30N 40°42' W 074°00'612.8
2017-Dec-11 00:00N 40°36' W 074°02'916.1
2017-Dec-10 23:26N 40°35' W 073°50'920.2
2017-Dec-10 23:00N 40°36' W 074°02'713.7
2017-Dec-10 22:31N 40°42' W 074°00'713.8
2017-Dec-10 22:00N 40°35' W 074°02'914.9
2017-Dec-10 21:24N 40°35' W 073°50'821.7
2017-Dec-10 21:01N 40°34' W 074°01'815.8
2017-Dec-10 20:30N 40°42' W 074°00'612.0
2017-Dec-10 20:00N 40°36' W 074°02'1016.0
2017-Dec-10 19:25N 40°35' W 073°50'921.4
2017-Dec-10 19:01N 40°35' W 074°01'815.0
2017-Dec-10 18:30N 40°42' W 074°00'2 0.1
2017-Dec-10 02:43N 40°42' W 073°58'0 0.7
2017-Dec-10 02:31N 40°42' W 073°58'611.1
2017-Dec-10 02:01N 40°38' W 074°03'1019.7
2017-Dec-10 01:30N 40°35' W 073°50'815.7
2017-Dec-10 01:00N 40°34' W 074°00'816.4
2017-Dec-10 00:30N 40°42' W 074°00'510.5
2017-Dec-10 00:01N 40°37' W 074°03'1019.7
2017-Dec-09 23:30N 40°35' W 073°50'815.5
2017-Dec-09 23:01N 40°34' W 074°00'816.3
2017-Dec-09 22:31N 40°42' W 074°00'510.8
2017-Dec-09 22:01N 40°37' W 074°03'1019.2
2017-Dec-09 21:30N 40°35' W 073°50'816.1
2017-Dec-09 21:00N 40°34' W 074°00'816.6
2017-Dec-09 20:31N 40°42' W 074°00'1 2.1
2017-Dec-09 20:01N 40°43' W 074°01'1324.8
2017-Dec-09 19:30N 40°55' W 073°55'4 1.4
2017-Dec-09 16:13N 40°59' W 073°54'625.8
2017-Dec-09 16:00N 40°54' W 073°55'1225.0
2017-Dec-09 15:31N 40°42' W 074°01'2 4.5
2017-Dec-09 15:01N 40°42' W 073°58'0 0.0
2017-Dec-09 04:02N 40°42' W 073°58'0 0.0
2017-Dec-09 04:00N 40°42' W 073°58'1 3.0
2017-Dec-09 03:31N 40°42' W 074°00'4 8.2
2017-Dec-09 03:00N 40°45' W 073°57'0 0.1
2017-Dec-09 02:30N 40°45' W 073°57'4 7.4
2017-Dec-09 02:01N 40°42' W 073°60'3 6.0
2017-Dec-09 01:30N 40°45' W 073°57'2 3.4
2017-Dec-09 01:00N 40°46' W 073°56'2 4.8
2017-Dec-09 00:30N 40°44' W 073°58'0 0.3
2017-Dec-09 00:00N 40°45' W 073°58'2 4.5
2017-Dec-08 23:30N 40°46' W 073°56'2 3.5
2017-Dec-08 23:01N 40°45' W 073°57'3 6.8
2017-Dec-08 22:30N 40°42' W 074°00'4 7.9
2017-Dec-08 22:00N 40°45' W 073°57'0 0.1
2017-Dec-08 21:30N 40°45' W 073°57'4 8.0
2017-Dec-08 21:00N 40°42' W 074°00'3 6.7
2017-Dec-08 20:30N 40°45' W 073°57'2 3.3
2017-Dec-08 20:00N 40°46' W 073°56'2 4.8
2017-Dec-08 19:30N 40°45' W 073°58'0 0.3
2017-Dec-08 19:00N 40°45' W 073°58'2 4.4
2017-Dec-08 18:29N 40°46' W 073°56'2 3.6
2017-Dec-08 18:00N 40°45' W 073°57'3 6.7
2017-Dec-08 17:31N 40°42' W 074°00'5 8.8
2017-Dec-08 17:00N 40°46' W 073°57'0 0.9
2017-Dec-08 16:31N 40°45' W 073°57'4 7.6
2017-Dec-08 16:01N 40°42' W 073°60'3 6.2
2017-Dec-08 15:30N 40°45' W 073°57'2 3.4
2017-Dec-08 15:00N 40°46' W 073°56'1 1.3
2017-Dec-08 14:30N 40°46' W 073°57'2 4.4
2017-Dec-08 14:01N 40°44' W 073°58'1 1.8
2017-Dec-08 13:30N 40°45' W 073°58'2 4.3
2017-Dec-08 13:00N 40°46' W 073°56'2 3.5
2017-Dec-08 12:30N 40°45' W 073°57'2 3.9
2017-Dec-08 12:01N 40°43' W 073°58'4 7.2
2017-Dec-08 11:30N 40°46' W 073°56'5 9.2
2017-Dec-08 11:00N 40°42' W 073°58'0 0.0
2017-Dec-08 03:12N 40°42' W 073°58'2 9.7
2017-Dec-08 03:01N 40°42' W 074°01'916.8
2017-Dec-08 02:30N 40°34' W 073°55'1 1.5
2017-Dec-08 02:00N 40°34' W 073°54'714.5
2017-Dec-08 01:30N 40°39' W 074°02'0 0.0
2017-Dec-08 01:01N 40°39' W 074°02'713.6
2017-Dec-08 00:30N 40°34' W 073°55'0 0.9
2017-Dec-08 00:00N 40°34' W 073°55'714.3
2017-Dec-07 23:31N 40°39' W 074°02'0 0.0
2017-Dec-07 23:00N 40°39' W 074°02'713.8
2017-Dec-07 22:30N 40°34' W 073°55'1 1.6
2017-Dec-07 22:00N 40°34' W 073°56'714.3
2017-Dec-07 21:31N 40°39' W 074°02'0 0.8
2017-Dec-07 21:01N 40°39' W 074°02'815.3
2017-Dec-07 20:30N 40°34' W 073°53'5 9.2
2017-Dec-07 20:00N 40°34' W 073°59'816.8
2017-Dec-07 19:30N 40°42' W 074°00'0 0.1
2017-Dec-07 19:01N 40°42' W 074°00'1 3.0
2017-Dec-07 18:30N 40°43' W 073°58'4 8.0
2017-Dec-07 18:00N 40°46' W 073°56'4 7.7
2017-Dec-07 17:30N 40°43' W 073°58'4 8.1
2017-Dec-07 17:01N 40°40' W 074°01'1 2.8
2017-Dec-07 16:30N 40°41' W 074°01'0 0.1
2017-Dec-07 16:00N 40°41' W 074°01'3 5.2
2017-Dec-07 15:30N 40°43' W 073°58'3 6.6
2017-Dec-07 15:00N 40°46' W 073°57'2 3.0
2017-Dec-07 14:30N 40°45' W 073°58'0 0.1
2017-Dec-07 13:59N 40°45' W 073°58'2 4.6
2017-Dec-07 13:29N 40°46' W 073°56'2 3.6
2017-Dec-07 13:01N 40°45' W 073°57'3 6.7
2017-Dec-07 12:31N 40°42' W 074°00'4 8.3
2017-Dec-07 12:00N 40°46' W 073°57'4 7.2
2017-Dec-07 11:30N 40°42' W 073°58'0 0.0
2017-Dec-07 02:27N 40°42' W 073°58'4 9.3
2017-Dec-07 02:00N 40°39' W 074°02'714.2
2017-Dec-07 01:30N 40°34' W 073°55'1 1.1
2017-Dec-07 01:00N 40°34' W 073°55'714.2
2017-Dec-07 00:31N 40°39' W 074°02'0 0.2
2017-Dec-07 00:00N 40°39' W 074°02'714.1
2017-Dec-06 23:30N 40°34' W 073°55'2 3.1
2017-Dec-06 23:00N 40°34' W 073°57'613.2
2017-Dec-06 22:31N 40°39' W 074°02'0 0.1
2017-Dec-06 22:00N 40°39' W 074°02'713.3
2017-Dec-06 21:30N 40°34' W 073°56'2 4.4
2017-Dec-06 21:00N 40°34' W 073°53'  

Dump ship's entire track history